sensor_id;sensor_type;location;lat;lon;timestamp;P1;durP1;ratioP1;P2;durP2;ratioP2
69240;SDS011;56352;55.750;13.198;2023-12-07T00:00:00;19.35;;;9.85;;
69240;SDS011;56352;55.750;13.198;2023-12-07T00:02:27;21.10;;;10.90;;
69240;SDS011;56352;55.750;13.198;2023-12-07T00:04:54;20.77;;;10.05;;
69240;SDS011;56352;55.750;13.198;2023-12-07T00:07:20;20.40;;;11.10;;
69240;SDS011;56352;55.750;13.198;2023-12-07T00:09:47;17.70;;;9.90;;
69240;SDS011;56352;55.750;13.198;2023-12-07T00:12:14;19.33;;;9.93;;
69240;SDS011;56352;55.750;13.198;2023-12-07T00:14:41;18.23;;;9.32;;
69240;SDS011;56352;55.750;13.198;2023-12-07T00:17:07;22.52;;;10.32;;
69240;SDS011;56352;55.750;13.198;2023-12-07T00:19:34;17.38;;;9.57;;
69240;SDS011;56352;55.750;13.198;2023-12-07T00:22:01;18.27;;;10.57;;
69240;SDS011;56352;55.750;13.198;2023-12-07T00:24:28;16.63;;;8.88;;
69240;SDS011;56352;55.750;13.198;2023-12-07T00:26:55;19.73;;;9.98;;
69240;SDS011;56352;55.750;13.198;2023-12-07T00:29:22;16.52;;;8.52;;
69240;SDS011;56352;55.750;13.198;2023-12-07T00:31:49;16.48;;;8.85;;
69240;SDS011;56352;55.750;13.198;2023-12-07T00:34:15;18.02;;;8.52;;
69240;SDS011;56352;55.750;13.198;2023-12-07T00:36:43;14.38;;;8.18;;
69240;SDS011;56352;55.750;13.198;2023-12-07T00:39:10;16.70;;;8.38;;
69240;SDS011;56352;55.750;13.198;2023-12-07T00:41:37;15.35;;;7.88;;
69240;SDS011;56352;55.750;13.198;2023-12-07T00:44:03;15.27;;;8.02;;
69240;SDS011;56352;55.750;13.198;2023-12-07T00:46:32;15.30;;;8.45;;
69240;SDS011;56352;55.750;13.198;2023-12-07T00:49:01;14.13;;;7.45;;
69240;SDS011;56352;55.750;13.198;2023-12-07T00:51:27;14.77;;;7.18;;
69240;SDS011;56352;55.750;13.198;2023-12-07T00:53:54;13.30;;;7.40;;
69240;SDS011;56352;55.750;13.198;2023-12-07T00:56:21;13.05;;;7.20;;
69240;SDS011;56352;55.750;13.198;2023-12-07T00:58:47;13.63;;;7.40;;
69240;SDS011;56352;55.750;13.198;2023-12-07T01:01:14;13.02;;;7.30;;
69240;SDS011;56352;55.750;13.198;2023-12-07T01:03:40;14.75;;;7.68;;
69240;SDS011;56352;55.750;13.198;2023-12-07T01:06:07;12.43;;;6.82;;
69240;SDS011;56352;55.750;13.198;2023-12-07T01:08:36;13.27;;;7.75;;
69240;SDS011;56352;55.750;13.198;2023-12-07T01:11:04;13.82;;;7.20;;
69240;SDS011;56352;55.750;13.198;2023-12-07T01:13:31;13.70;;;6.93;;
69240;SDS011;56352;55.750;13.198;2023-12-07T01:15:57;14.30;;;7.18;;
69240;SDS011;56352;55.750;13.198;2023-12-07T01:18:24;11.35;;;7.03;;
69240;SDS011;56352;55.750;13.198;2023-12-07T01:20:51;12.95;;;7.03;;
69240;SDS011;56352;55.750;13.198;2023-12-07T01:23:17;11.93;;;6.97;;
69240;SDS011;56352;55.750;13.198;2023-12-07T01:25:44;12.90;;;7.13;;
69240;SDS011;56352;55.750;13.198;2023-12-07T01:28:11;12.95;;;6.72;;
69240;SDS011;56352;55.750;13.198;2023-12-07T01:30:37;13.13;;;6.50;;
69240;SDS011;56352;55.750;13.198;2023-12-07T01:33:04;14.38;;;7.32;;
69240;SDS011;56352;55.750;13.198;2023-12-07T01:35:30;12.77;;;6.53;;
69240;SDS011;56352;55.750;13.198;2023-12-07T01:37:57;11.52;;;6.40;;
69240;SDS011;56352;55.750;13.198;2023-12-07T01:40:23;13.48;;;6.68;;
69240;SDS011;56352;55.750;13.198;2023-12-07T01:42:53;12.40;;;6.45;;
69240;SDS011;56352;55.750;13.198;2023-12-07T01:45:20;10.50;;;6.20;;
69240;SDS011;56352;55.750;13.198;2023-12-07T01:47:47;11.20;;;6.10;;
69240;SDS011;56352;55.750;13.198;2023-12-07T01:52:43;10.25;;;5.60;;
69240;SDS011;56352;55.750;13.198;2023-12-07T01:55:12;11.10;;;5.97;;
69240;SDS011;56352;55.750;13.198;2023-12-07T01:57:39;12.38;;;6.50;;
69240;SDS011;56352;55.750;13.198;2023-12-07T02:00:07;9.25;;;5.82;;
69240;SDS011;56352;55.750;13.198;2023-12-07T02:02:35;14.93;;;6.25;;
69240;SDS011;56352;55.750;13.198;2023-12-07T02:05:02;9.88;;;6.40;;
69240;SDS011;56352;55.750;13.198;2023-12-07T02:07:30;12.15;;;6.20;;
69240;SDS011;56352;55.750;13.198;2023-12-07T02:09:57;12.30;;;6.13;;
69240;SDS011;56352;55.750;13.198;2023-12-07T02:12:24;11.60;;;5.70;;
69240;SDS011;56352;55.750;13.198;2023-12-07T02:14:51;12.50;;;6.80;;
69240;SDS011;56352;55.750;13.198;2023-12-07T02:22:28;11.40;;;6.53;;
69240;SDS011;56352;55.750;13.198;2023-12-07T02:25:08;9.57;;;5.88;;
69240;SDS011;56352;55.750;13.198;2023-12-07T02:30:03;11.98;;;6.03;;
69240;SDS011;56352;55.750;13.198;2023-12-07T02:32:31;10.45;;;5.82;;
69240;SDS011;56352;55.750;13.198;2023-12-07T02:34:58;11.45;;;6.45;;
69240;SDS011;56352;55.750;13.198;2023-12-07T02:37:25;13.02;;;6.55;;
69240;SDS011;56352;55.750;13.198;2023-12-07T02:39:55;12.20;;;6.38;;
69240;SDS011;56352;55.750;13.198;2023-12-07T02:42:24;11.77;;;6.30;;
69240;SDS011;56352;55.750;13.198;2023-12-07T02:44:52;11.50;;;6.18;;
69240;SDS011;56352;55.750;13.198;2023-12-07T02:47:19;11.25;;;6.85;;
69240;SDS011;56352;55.750;13.198;2023-12-07T02:49:46;10.35;;;6.07;;
69240;SDS011;56352;55.750;13.198;2023-12-07T02:52:13;12.10;;;6.05;;
69240;SDS011;56352;55.750;13.198;2023-12-07T02:54:39;11.13;;;6.28;;
69240;SDS011;56352;55.750;13.198;2023-12-07T02:57:06;11.43;;;5.90;;
69240;SDS011;56352;55.750;13.198;2023-12-07T02:59:32;11.80;;;5.80;;
69240;SDS011;56352;55.750;13.198;2023-12-07T03:01:59;10.90;;;6.10;;
69240;SDS011;56352;55.750;13.198;2023-12-07T03:04:26;10.52;;;5.60;;
69240;SDS011;56352;55.750;13.198;2023-12-07T03:06:52;11.68;;;6.43;;
69240;SDS011;56352;55.750;13.198;2023-12-07T03:09:19;12.15;;;5.60;;
69240;SDS011;56352;55.750;13.198;2023-12-07T03:11:46;10.93;;;6.00;;
69240;SDS011;56352;55.750;13.198;2023-12-07T03:14:12;10.82;;;6.03;;
69240;SDS011;56352;55.750;13.198;2023-12-07T03:16:39;11.05;;;5.30;;
69240;SDS011;56352;55.750;13.198;2023-12-07T03:19:05;11.05;;;5.55;;
69240;SDS011;56352;55.750;13.198;2023-12-07T03:21:32;12.27;;;6.22;;
69240;SDS011;56352;55.750;13.198;2023-12-07T03:23:59;10.80;;;6.03;;
69240;SDS011;56352;55.750;13.198;2023-12-07T03:26:25;12.23;;;6.07;;
69240;SDS011;56352;55.750;13.198;2023-12-07T03:28:52;10.15;;;6.22;;
69240;SDS011;56352;55.750;13.198;2023-12-07T03:31:19;12.07;;;6.28;;
69240;SDS011;56352;55.750;13.198;2023-12-07T03:33:45;12.15;;;6.07;;
69240;SDS011;56352;55.750;13.198;2023-12-07T03:36:12;11.18;;;6.13;;
69240;SDS011;56352;55.750;13.198;2023-12-07T03:38:39;11.10;;;5.82;;
69240;SDS011;56352;55.750;13.198;2023-12-07T03:41:05;10.18;;;5.45;;
69240;SDS011;56352;55.750;13.198;2023-12-07T03:43:32;9.75;;;5.63;;
69240;SDS011;56352;55.750;13.198;2023-12-07T03:45:58;9.40;;;5.35;;
69240;SDS011;56352;55.750;13.198;2023-12-07T03:48:25;9.27;;;5.25;;
69240;SDS011;56352;55.750;13.198;2023-12-07T03:50:52;13.38;;;5.70;;
69240;SDS011;56352;55.750;13.198;2023-12-07T03:53:18;10.00;;;5.47;;
69240;SDS011;56352;55.750;13.198;2023-12-07T03:55:45;9.18;;;5.30;;
69240;SDS011;56352;55.750;13.198;2023-12-07T03:58:12;11.07;;;5.25;;
69240;SDS011;56352;55.750;13.198;2023-12-07T04:00:39;10.15;;;5.75;;
69240;SDS011;56352;55.750;13.198;2023-12-07T04:03:06;8.93;;;5.28;;
69240;SDS011;56352;55.750;13.198;2023-12-07T04:05:33;9.75;;;5.47;;
69240;SDS011;56352;55.750;13.198;2023-12-07T04:08:00;8.20;;;5.10;;
69240;SDS011;56352;55.750;13.198;2023-12-07T04:10:26;8.82;;;4.80;;
69240;SDS011;56352;55.750;13.198;2023-12-07T04:12:53;9.15;;;4.43;;
69240;SDS011;56352;55.750;13.198;2023-12-07T04:15:20;9.45;;;5.28;;
69240;SDS011;56352;55.750;13.198;2023-12-07T04:17:46;9.93;;;5.47;;
69240;SDS011;56352;55.750;13.198;2023-12-07T04:20:13;10.45;;;4.75;;
69240;SDS011;56352;55.750;13.198;2023-12-07T04:22:40;7.35;;;4.35;;
69240;SDS011;56352;55.750;13.198;2023-12-07T04:25:07;8.85;;;5.07;;
69240;SDS011;56352;55.750;13.198;2023-12-07T04:27:34;7.40;;;4.22;;
69240;SDS011;56352;55.750;13.198;2023-12-07T04:30:00;9.18;;;4.80;;
69240;SDS011;56352;55.750;13.198;2023-12-07T04:32:27;8.25;;;4.75;;
69240;SDS011;56352;55.750;13.198;2023-12-07T04:34:54;10.07;;;5.18;;
69240;SDS011;56352;55.750;13.198;2023-12-07T04:37:21;7.93;;;4.20;;
69240;SDS011;56352;55.750;13.198;2023-12-07T04:39:48;9.00;;;4.68;;
69240;SDS011;56352;55.750;13.198;2023-12-07T04:42:14;9.13;;;5.32;;
69240;SDS011;56352;55.750;13.198;2023-12-07T04:44:41;8.50;;;5.03;;
69240;SDS011;56352;55.750;13.198;2023-12-07T04:47:09;8.27;;;5.20;;
69240;SDS011;56352;55.750;13.198;2023-12-07T04:49:35;7.90;;;4.38;;
69240;SDS011;56352;55.750;13.198;2023-12-07T04:52:02;9.32;;;5.03;;
69240;SDS011;56352;55.750;13.198;2023-12-07T04:54:29;8.45;;;4.88;;
69240;SDS011;56352;55.750;13.198;2023-12-07T04:56:56;12.02;;;5.40;;
69240;SDS011;56352;55.750;13.198;2023-12-07T04:59:22;9.20;;;4.43;;
69240;SDS011;56352;55.750;13.198;2023-12-07T05:01:49;8.95;;;5.05;;
69240;SDS011;56352;55.750;13.198;2023-12-07T05:04:16;9.02;;;4.70;;
69240;SDS011;56352;55.750;13.198;2023-12-07T05:06:43;9.10;;;5.32;;
69240;SDS011;56352;55.750;13.198;2023-12-07T05:09:09;10.85;;;5.15;;
69240;SDS011;56352;55.750;13.198;2023-12-07T05:11:37;9.48;;;5.50;;
69240;SDS011;56352;55.750;13.198;2023-12-07T05:14:04;8.07;;;4.68;;
69240;SDS011;56352;55.750;13.198;2023-12-07T05:16:30;9.63;;;5.30;;
69240;SDS011;56352;55.750;13.198;2023-12-07T05:18:57;9.25;;;5.35;;
69240;SDS011;56352;55.750;13.198;2023-12-07T05:21:24;9.02;;;5.07;;
69240;SDS011;56352;55.750;13.198;2023-12-07T05:23:51;9.95;;;5.15;;
69240;SDS011;56352;55.750;13.198;2023-12-07T05:26:17;9.38;;;5.13;;
69240;SDS011;56352;55.750;13.198;2023-12-07T05:28:44;9.38;;;5.30;;
69240;SDS011;56352;55.750;13.198;2023-12-07T05:31:17;10.13;;;5.93;;
69240;SDS011;56352;55.750;13.198;2023-12-07T05:33:44;7.88;;;5.25;;
69240;SDS011;56352;55.750;13.198;2023-12-07T05:36:11;9.07;;;5.38;;
69240;SDS011;56352;55.750;13.198;2023-12-07T05:38:38;11.10;;;5.97;;
69240;SDS011;56352;55.750;13.198;2023-12-07T05:41:05;10.48;;;5.30;;
69240;SDS011;56352;55.750;13.198;2023-12-07T05:43:31;11.52;;;5.95;;
69240;SDS011;56352;55.750;13.198;2023-12-07T05:46:00;11.95;;;5.60;;
69240;SDS011;56352;55.750;13.198;2023-12-07T05:48:26;10.90;;;5.22;;
69240;SDS011;56352;55.750;13.198;2023-12-07T05:50:53;10.10;;;5.45;;
69240;SDS011;56352;55.750;13.198;2023-12-07T05:53:20;8.57;;;5.53;;
69240;SDS011;56352;55.750;13.198;2023-12-07T05:55:46;12.18;;;5.68;;
69240;SDS011;56352;55.750;13.198;2023-12-07T05:58:13;12.75;;;6.35;;
69240;SDS011;56352;55.750;13.198;2023-12-07T06:00:40;8.38;;;5.47;;
69240;SDS011;56352;55.750;13.198;2023-12-07T06:03:06;12.10;;;6.10;;
69240;SDS011;56352;55.750;13.198;2023-12-07T06:05:38;11.17;;;5.83;;
69240;SDS011;56352;55.750;13.198;2023-12-07T06:08:07;9.25;;;5.07;;
69240;SDS011;56352;55.750;13.198;2023-12-07T06:10:34;12.95;;;6.43;;
69240;SDS011;56352;55.750;13.198;2023-12-07T06:13:01;10.98;;;5.55;;
69240;SDS011;56352;55.750;13.198;2023-12-07T06:15:30;10.63;;;5.45;;
69240;SDS011;56352;55.750;13.198;2023-12-07T06:17:57;11.98;;;5.85;;
69240;SDS011;56352;55.750;13.198;2023-12-07T06:20:24;11.47;;;5.67;;
69240;SDS011;56352;55.750;13.198;2023-12-07T06:22:51;8.82;;;5.40;;
69240;SDS011;56352;55.750;13.198;2023-12-07T06:25:18;12.25;;;6.60;;
69240;SDS011;56352;55.750;13.198;2023-12-07T06:27:46;11.52;;;5.50;;
69240;SDS011;56352;55.750;13.198;2023-12-07T06:30:13;11.75;;;6.07;;
69240;SDS011;56352;55.750;13.198;2023-12-07T06:32:39;14.43;;;6.03;;
69240;SDS011;56352;55.750;13.198;2023-12-07T06:35:06;11.55;;;5.72;;
69240;SDS011;56352;55.750;13.198;2023-12-07T06:37:34;10.70;;;5.32;;
69240;SDS011;56352;55.750;13.198;2023-12-07T06:40:00;12.00;;;6.13;;
69240;SDS011;56352;55.750;13.198;2023-12-07T06:42:27;12.55;;;6.15;;
69240;SDS011;56352;55.750;13.198;2023-12-07T06:44:54;10.90;;;5.78;;
69240;SDS011;56352;55.750;13.198;2023-12-07T06:47:20;12.93;;;5.85;;
69240;SDS011;56352;55.750;13.198;2023-12-07T06:49:47;10.85;;;5.25;;
69240;SDS011;56352;55.750;13.198;2023-12-07T06:52:18;14.25;;;6.38;;
69240;SDS011;56352;55.750;13.198;2023-12-07T06:54:45;11.55;;;5.43;;
69240;SDS011;56352;55.750;13.198;2023-12-07T06:57:12;9.98;;;5.78;;
69240;SDS011;56352;55.750;13.198;2023-12-07T06:59:38;11.73;;;6.07;;
69240;SDS011;56352;55.750;13.198;2023-12-07T07:02:07;13.07;;;5.65;;
69240;SDS011;56352;55.750;13.198;2023-12-07T07:04:34;11.15;;;5.93;;
69240;SDS011;56352;55.750;13.198;2023-12-07T07:07:00;12.40;;;6.47;;
69240;SDS011;56352;55.750;13.198;2023-12-07T07:09:27;12.25;;;6.35;;
69240;SDS011;56352;55.750;13.198;2023-12-07T07:11:54;12.05;;;6.07;;
69240;SDS011;56352;55.750;13.198;2023-12-07T07:14:21;16.55;;;6.78;;
69240;SDS011;56352;55.750;13.198;2023-12-07T07:16:47;15.07;;;7.20;;
69240;SDS011;56352;55.750;13.198;2023-12-07T07:19:14;16.08;;;6.45;;
69240;SDS011;56352;55.750;13.198;2023-12-07T07:21:43;14.90;;;7.13;;
69240;SDS011;56352;55.750;13.198;2023-12-07T07:24:10;12.95;;;6.57;;
69240;SDS011;56352;55.750;13.198;2023-12-07T07:26:36;17.67;;;6.93;;
69240;SDS011;56352;55.750;13.198;2023-12-07T07:29:03;15.00;;;6.20;;
69240;SDS011;56352;55.750;13.198;2023-12-07T07:31:30;12.55;;;6.20;;
69240;SDS011;56352;55.750;13.198;2023-12-07T07:33:57;17.35;;;6.63;;
69240;SDS011;56352;55.750;13.198;2023-12-07T07:36:27;12.60;;;6.75;;
69240;SDS011;56352;55.750;13.198;2023-12-07T07:38:54;20.23;;;6.68;;
69240;SDS011;56352;55.750;13.198;2023-12-07T07:41:21;18.13;;;6.63;;
69240;SDS011;56352;55.750;13.198;2023-12-07T07:43:47;13.95;;;6.28;;
69240;SDS011;56352;55.750;13.198;2023-12-07T07:46:14;17.35;;;7.57;;
69240;SDS011;56352;55.750;13.198;2023-12-07T07:48:41;13.60;;;6.43;;
69240;SDS011;56352;55.750;13.198;2023-12-07T07:51:08;15.10;;;6.28;;
69240;SDS011;56352;55.750;13.198;2023-12-07T07:53:34;14.27;;;7.15;;
69240;SDS011;56352;55.750;13.198;2023-12-07T07:56:01;12.00;;;6.18;;
69240;SDS011;56352;55.750;13.198;2023-12-07T07:58:28;12.57;;;6.47;;
69240;SDS011;56352;55.750;13.198;2023-12-07T08:00:54;12.60;;;6.45;;
69240;SDS011;56352;55.750;13.198;2023-12-07T08:03:21;11.73;;;5.55;;
69240;SDS011;56352;55.750;13.198;2023-12-07T08:05:48;12.75;;;6.55;;
69240;SDS011;56352;55.750;13.198;2023-12-07T08:08:15;13.93;;;6.75;;
69240;SDS011;56352;55.750;13.198;2023-12-07T08:10:42;14.48;;;6.90;;
69240;SDS011;56352;55.750;13.198;2023-12-07T08:15:48;9.63;;;5.38;;
69240;SDS011;56352;55.750;13.198;2023-12-07T08:18:15;13.02;;;6.03;;
69240;SDS011;56352;55.750;13.198;2023-12-07T08:20:42;13.77;;;6.47;;
69240;SDS011;56352;55.750;13.198;2023-12-07T08:23:08;14.80;;;6.75;;
69240;SDS011;56352;55.750;13.198;2023-12-07T08:25:38;12.82;;;6.75;;
69240;SDS011;56352;55.750;13.198;2023-12-07T08:28:04;11.57;;;6.73;;
69240;SDS011;56352;55.750;13.198;2023-12-07T08:30:31;13.85;;;6.20;;
69240;SDS011;56352;55.750;13.198;2023-12-07T08:32:58;14.02;;;6.30;;
69240;SDS011;56352;55.750;13.198;2023-12-07T08:35:25;12.68;;;6.90;;
69240;SDS011;56352;55.750;13.198;2023-12-07T08:37:52;14.85;;;6.90;;
69240;SDS011;56352;55.750;13.198;2023-12-07T08:40:18;12.38;;;6.43;;
69240;SDS011;56352;55.750;13.198;2023-12-07T08:42:46;17.20;;;6.97;;
69240;SDS011;56352;55.750;13.198;2023-12-07T08:45:17;10.65;;;6.13;;
69240;SDS011;56352;55.750;13.198;2023-12-07T08:47:43;14.27;;;6.70;;
69240;SDS011;56352;55.750;13.198;2023-12-07T08:50:10;12.27;;;5.93;;
69240;SDS011;56352;55.750;13.198;2023-12-07T08:52:37;11.43;;;6.15;;
69240;SDS011;56352;55.750;13.198;2023-12-07T08:55:13;12.98;;;6.00;;
69240;SDS011;56352;55.750;13.198;2023-12-07T08:57:42;12.70;;;6.43;;
69240;SDS011;56352;55.750;13.198;2023-12-07T09:00:09;9.50;;;5.65;;
69240;SDS011;56352;55.750;13.198;2023-12-07T09:02:39;12.50;;;6.75;;
69240;SDS011;56352;55.750;13.198;2023-12-07T09:05:13;12.30;;;6.68;;
69240;SDS011;56352;55.750;13.198;2023-12-07T09:07:41;11.80;;;6.95;;
69240;SDS011;56352;55.750;13.198;2023-12-07T09:10:08;16.35;;;7.35;;
69240;SDS011;56352;55.750;13.198;2023-12-07T09:12:36;15.68;;;6.70;;
69240;SDS011;56352;55.750;13.198;2023-12-07T09:15:05;16.23;;;8.30;;
69240;SDS011;56352;55.750;13.198;2023-12-07T09:17:37;12.75;;;6.70;;
69240;SDS011;56352;55.750;13.198;2023-12-07T09:20:08;12.32;;;6.80;;
69240;SDS011;56352;55.750;13.198;2023-12-07T09:22:40;12.02;;;6.97;;
69240;SDS011;56352;55.750;13.198;2023-12-07T09:25:09;13.80;;;6.90;;
69240;SDS011;56352;55.750;13.198;2023-12-07T09:27:39;12.52;;;7.43;;
69240;SDS011;56352;55.750;13.198;2023-12-07T09:30:06;15.90;;;7.78;;
69240;SDS011;56352;55.750;13.198;2023-12-07T09:32:41;14.60;;;7.50;;
69240;SDS011;56352;55.750;13.198;2023-12-07T09:35:11;16.05;;;7.57;;
69240;SDS011;56352;55.750;13.198;2023-12-07T09:37:50;15.82;;;7.75;;
69240;SDS011;56352;55.750;13.198;2023-12-07T09:40:18;11.77;;;7.05;;
69240;SDS011;56352;55.750;13.198;2023-12-07T09:42:47;14.35;;;7.03;;
69240;SDS011;56352;55.750;13.198;2023-12-07T09:45:14;15.63;;;7.80;;
69240;SDS011;56352;55.750;13.198;2023-12-07T09:47:48;15.27;;;7.35;;
69240;SDS011;56352;55.750;13.198;2023-12-07T09:50:17;14.48;;;7.40;;
69240;SDS011;56352;55.750;13.198;2023-12-07T09:52:44;13.52;;;7.03;;
69240;SDS011;56352;55.750;13.198;2023-12-07T09:55:25;12.00;;;7.07;;
69240;SDS011;56352;55.750;13.198;2023-12-07T09:57:52;10.77;;;6.68;;
69240;SDS011;56352;55.750;13.198;2023-12-07T10:00:23;13.13;;;7.40;;
69240;SDS011;56352;55.750;13.198;2023-12-07T10:02:49;13.70;;;7.00;;
69240;SDS011;56352;55.750;13.198;2023-12-07T10:05:17;13.23;;;7.38;;
69240;SDS011;56352;55.750;13.198;2023-12-07T10:07:44;14.90;;;7.60;;
69240;SDS011;56352;55.750;13.198;2023-12-07T10:10:15;14.10;;;7.15;;
69240;SDS011;56352;55.750;13.198;2023-12-07T10:15:14;12.13;;;7.07;;
69240;SDS011;56352;55.750;13.198;2023-12-07T10:17:49;12.87;;;7.00;;
69240;SDS011;56352;55.750;13.198;2023-12-07T10:20:21;15.80;;;7.30;;
69240;SDS011;56352;55.750;13.198;2023-12-07T10:25:32;10.25;;;6.40;;
69240;SDS011;56352;55.750;13.198;2023-12-07T10:28:01;13.63;;;7.07;;
69240;SDS011;56352;55.750;13.198;2023-12-07T10:30:39;11.25;;;6.53;;
69240;SDS011;56352;55.750;13.198;2023-12-07T10:33:09;14.38;;;6.85;;
69240;SDS011;56352;55.750;13.198;2023-12-07T10:35:39;14.05;;;6.82;;
69240;SDS011;56352;55.750;13.198;2023-12-07T10:38:07;13.85;;;6.60;;
69240;SDS011;56352;55.750;13.198;2023-12-07T10:40:34;11.98;;;6.57;;
69240;SDS011;56352;55.750;13.198;2023-12-07T10:43:02;10.60;;;6.28;;
69240;SDS011;56352;55.750;13.198;2023-12-07T10:45:31;14.65;;;6.80;;
69240;SDS011;56352;55.750;13.198;2023-12-07T10:48:06;21.73;;;7.47;;
69240;SDS011;56352;55.750;13.198;2023-12-07T10:50:35;18.05;;;8.43;;
69240;SDS011;56352;55.750;13.198;2023-12-07T10:53:09;13.48;;;7.50;;
69240;SDS011;56352;55.750;13.198;2023-12-07T10:55:49;13.60;;;8.55;;
69240;SDS011;56352;55.750;13.198;2023-12-07T10:58:19;12.13;;;7.70;;
69240;SDS011;56352;55.750;13.198;2023-12-07T11:00:46;13.27;;;7.72;;
69240;SDS011;56352;55.750;13.198;2023-12-07T11:03:15;22.08;;;8.43;;
69240;SDS011;56352;55.750;13.198;2023-12-07T11:05:44;16.30;;;8.55;;
69240;SDS011;56352;55.750;13.198;2023-12-07T11:08:12;14.85;;;8.02;;
69240;SDS011;56352;55.750;13.198;2023-12-07T11:10:53;19.17;;;9.20;;
69240;SDS011;56352;55.750;13.198;2023-12-07T11:13:27;14.32;;;8.98;;
69240;SDS011;56352;55.750;13.198;2023-12-07T11:15:59;17.40;;;8.25;;
69240;SDS011;56352;55.750;13.198;2023-12-07T11:18:26;14.68;;;8.52;;
69240;SDS011;56352;55.750;13.198;2023-12-07T11:20:54;16.80;;;9.07;;
69240;SDS011;56352;55.750;13.198;2023-12-07T11:23:21;17.73;;;9.60;;
69240;SDS011;56352;55.750;13.198;2023-12-07T11:25:49;16.40;;;8.93;;
69240;SDS011;56352;55.750;13.198;2023-12-07T11:28:37;17.83;;;9.05;;
69240;SDS011;56352;55.750;13.198;2023-12-07T11:31:07;20.98;;;10.18;;
69240;SDS011;56352;55.750;13.198;2023-12-07T11:33:37;16.92;;;9.27;;
69240;SDS011;56352;55.750;13.198;2023-12-07T11:36:17;17.90;;;8.65;;
69240;SDS011;56352;55.750;13.198;2023-12-07T11:39:29;18.17;;;8.95;;
69240;SDS011;56352;55.750;13.198;2023-12-07T11:41:49;18.20;;;9.38;;
69240;SDS011;56352;55.750;13.198;2023-12-07T11:44:17;15.48;;;9.40;;
69240;SDS011;56352;55.750;13.198;2023-12-07T11:46:43;18.45;;;8.82;;
69240;SDS011;56352;55.750;13.198;2023-12-07T11:49:11;18.00;;;9.48;;
69240;SDS011;56352;55.750;13.198;2023-12-07T11:51:53;16.30;;;9.13;;
69240;SDS011;56352;55.750;13.198;2023-12-07T11:54:21;20.58;;;10.77;;
69240;SDS011;56352;55.750;13.198;2023-12-07T11:56:55;18.77;;;9.95;;
69240;SDS011;56352;55.750;13.198;2023-12-07T11:59:22;19.98;;;9.35;;
69240;SDS011;56352;55.750;13.198;2023-12-07T12:01:59;18.83;;;9.88;;
69240;SDS011;56352;55.750;13.198;2023-12-07T12:04:29;21.83;;;10.70;;
69240;SDS011;56352;55.750;13.198;2023-12-07T12:06:56;17.85;;;9.35;;
69240;SDS011;56352;55.750;13.198;2023-12-07T12:09:26;17.30;;;9.50;;
69240;SDS011;56352;55.750;13.198;2023-12-07T12:11:58;19.15;;;9.77;;
69240;SDS011;56352;55.750;13.198;2023-12-07T12:14:26;18.75;;;9.80;;
69240;SDS011;56352;55.750;13.198;2023-12-07T12:16:54;17.38;;;8.95;;
69240;SDS011;56352;55.750;13.198;2023-12-07T12:19:22;21.17;;;9.70;;
69240;SDS011;56352;55.750;13.198;2023-12-07T12:22:00;17.13;;;9.77;;
69240;SDS011;56352;55.750;13.198;2023-12-07T12:24:32;19.75;;;9.73;;
69240;SDS011;56352;55.750;13.198;2023-12-07T12:26:59;20.77;;;9.95;;
69240;SDS011;56352;55.750;13.198;2023-12-07T12:29:26;24.27;;;9.90;;
69240;SDS011;56352;55.750;13.198;2023-12-07T12:32:00;19.60;;;11.05;;
69240;SDS011;56352;55.750;13.198;2023-12-07T12:34:28;17.63;;;9.48;;
69240;SDS011;56352;55.750;13.198;2023-12-07T12:36:56;18.70;;;9.25;;
69240;SDS011;56352;55.750;13.198;2023-12-07T12:39:29;18.48;;;9.30;;
69240;SDS011;56352;55.750;13.198;2023-12-07T12:41:59;24.58;;;10.73;;
69240;SDS011;56352;55.750;13.198;2023-12-07T12:44:27;19.52;;;11.02;;
69240;SDS011;56352;55.750;13.198;2023-12-07T12:47:04;21.63;;;10.90;;
69240;SDS011;56352;55.750;13.198;2023-12-07T12:49:35;23.37;;;11.63;;
69240;SDS011;56352;55.750;13.198;2023-12-07T12:52:09;21.92;;;11.13;;
69240;SDS011;56352;55.750;13.198;2023-12-07T12:57:05;23.33;;;10.70;;
69240;SDS011;56352;55.750;13.198;2023-12-07T12:59:33;18.63;;;10.57;;
69240;SDS011;56352;55.750;13.198;2023-12-07T13:01:59;20.05;;;10.55;;
69240;SDS011;56352;55.750;13.198;2023-12-07T13:04:26;17.90;;;10.50;;
69240;SDS011;56352;55.750;13.198;2023-12-07T13:06:53;23.00;;;10.40;;
69240;SDS011;56352;55.750;13.198;2023-12-07T13:09:20;16.80;;;9.63;;
69240;SDS011;56352;55.750;13.198;2023-12-07T13:11:47;18.90;;;9.75;;
69240;SDS011;56352;55.750;13.198;2023-12-07T13:14:15;17.00;;;9.48;;
69240;SDS011;56352;55.750;13.198;2023-12-07T13:16:43;19.38;;;9.65;;
69240;SDS011;56352;55.750;13.198;2023-12-07T13:19:09;17.83;;;10.00;;
69240;SDS011;56352;55.750;13.198;2023-12-07T13:21:36;18.77;;;9.60;;
69240;SDS011;56352;55.750;13.198;2023-12-07T13:24:03;20.52;;;10.35;;
69240;SDS011;56352;55.750;13.198;2023-12-07T13:26:31;23.20;;;9.43;;
69240;SDS011;56352;55.750;13.198;2023-12-07T13:28:58;20.05;;;9.43;;
69240;SDS011;56352;55.750;13.198;2023-12-07T13:31:24;16.83;;;8.27;;
69240;SDS011;56352;55.750;13.198;2023-12-07T13:33:51;16.40;;;8.75;;
69240;SDS011;56352;55.750;13.198;2023-12-07T13:36:22;16.77;;;8.05;;
69240;SDS011;56352;55.750;13.198;2023-12-07T13:38:57;16.38;;;8.60;;
69240;SDS011;56352;55.750;13.198;2023-12-07T13:41:24;21.58;;;10.50;;
69240;SDS011;56352;55.750;13.198;2023-12-07T13:43:50;23.35;;;11.38;;
69240;SDS011;56352;55.750;13.198;2023-12-07T13:46:17;21.27;;;10.95;;
69240;SDS011;56352;55.750;13.198;2023-12-07T13:48:44;21.70;;;11.35;;
69240;SDS011;56352;55.750;13.198;2023-12-07T13:51:11;23.35;;;10.68;;
69240;SDS011;56352;55.750;13.198;2023-12-07T13:53:38;23.90;;;10.77;;
69240;SDS011;56352;55.750;13.198;2023-12-07T13:56:05;20.75;;;10.52;;
69240;SDS011;56352;55.750;13.198;2023-12-07T13:58:34;19.40;;;9.57;;
69240;SDS011;56352;55.750;13.198;2023-12-07T14:01:05;17.23;;;9.55;;
69240;SDS011;56352;55.750;13.198;2023-12-07T14:03:33;18.33;;;9.20;;
69240;SDS011;56352;55.750;13.198;2023-12-07T14:06:00;16.13;;;8.85;;
69240;SDS011;56352;55.750;13.198;2023-12-07T14:08:40;17.05;;;9.73;;
69240;SDS011;56352;55.750;13.198;2023-12-07T14:11:06;17.70;;;8.95;;
69240;SDS011;56352;55.750;13.198;2023-12-07T14:13:33;15.50;;;8.45;;
69240;SDS011;56352;55.750;13.198;2023-12-07T14:16:01;16.40;;;8.57;;
69240;SDS011;56352;55.750;13.198;2023-12-07T14:18:41;15.32;;;8.50;;
69240;SDS011;56352;55.750;13.198;2023-12-07T14:21:19;17.45;;;8.65;;
69240;SDS011;56352;55.750;13.198;2023-12-07T14:23:47;14.40;;;7.80;;
69240;SDS011;56352;55.750;13.198;2023-12-07T14:26:21;17.33;;;8.38;;
69240;SDS011;56352;55.750;13.198;2023-12-07T14:28:47;17.63;;;9.15;;
69240;SDS011;56352;55.750;13.198;2023-12-07T14:31:14;16.35;;;8.90;;
69240;SDS011;56352;55.750;13.198;2023-12-07T14:33:43;17.45;;;9.55;;
69240;SDS011;56352;55.750;13.198;2023-12-07T14:36:10;18.05;;;8.95;;
69240;SDS011;56352;55.750;13.198;2023-12-07T14:38:40;14.05;;;8.02;;
69240;SDS011;56352;55.750;13.198;2023-12-07T14:41:07;18.77;;;8.27;;
69240;SDS011;56352;55.750;13.198;2023-12-07T14:43:33;18.60;;;9.52;;
69240;SDS011;56352;55.750;13.198;2023-12-07T14:46:00;19.55;;;9.38;;
69240;SDS011;56352;55.750;13.198;2023-12-07T14:48:28;18.40;;;9.60;;